Time;durP1;ratioP1;P1;durP2;ratioP2;P2;SDS_P1;SDS_P2;PMS_P1;PMS_P2;Temp;Humidity;BMP_temperature;BMP_pressure;BME280_temperature;BME280_humidity;BME280_pressure;Samples;Min_cycle;Max_cycle;Signal;HPM_P1;HPM_P2
2022/02/28 00:01:09;;;;;;;8.77;5.57;;;;;;;0.35;72.15;101854.16;1630525;86;21073;-73
2022/02/28 00:03:36;;;;;;;7.57;5.40;;;;;;;0.42;72.24;101855.14;1694420;83;21073;-73
2022/02/28 00:06:03;;;;;;;9.97;7.07;;;;;;;0.40;72.10;101860.47;1696115;83;21094;-76
2022/02/28 00:08:31;;;;;;;7.20;5.37;;;;;;;0.37;71.99;101861.47;1693835;83;21026;-74
2022/02/28 00:10:59;;;;;;;10.17;6.37;;;;;;;0.34;72.13;101870.84;1652509;85;21650;-73
2022/02/28 00:13:25;;;;;;;12.80;8.33;;;;;;;0.30;72.16;101868.01;1699398;82;21580;-73
2022/02/28 00:15:51;;;;;;;10.78;8.60;;;;;;;0.26;72.29;101860.37;1676798;84;21116;-74
2022/02/28 00:18:19;;;;;;;10.77;8.83;;;;;;;0.23;72.22;101864.47;1644763;85;21080;-73
2022/02/28 00:20:45;;;;;;;17.50;11.88;;;;;;;0.22;72.27;101864.94;1638276;85;21021;-74
2022/02/28 00:23:11;;;;;;;16.67;12.50;;;;;;;0.24;72.27;101864.39;1671161;83;21037;-72
2022/02/28 00:25:39;;;;;;;15.53;11.67;;;;;;;0.26;72.04;101866.45;1694228;84;21028;-75
2022/02/28 00:28:07;;;;;;;21.43;13.60;;;;;;;0.24;71.87;101864.86;1655118;84;21050;-76
2022/02/28 00:30:36;;;;;;;16.27;10.90;;;;;;;0.21;71.74;101866.33;1652697;84;21056;-73
2022/02/28 00:33:05;;;;;;;14.37;10.43;;;;;;;0.15;71.80;101863.13;1693325;84;21132;-73
2022/02/28 00:35:33;;;;;;;17.70;13.17;;;;;;;0.13;71.80;101871.98;1653183;86;21093;-73
2022/02/28 00:38:04;;;;;;;19.90;12.80;;;;;;;0.08;71.92;101864.86;1703120;83;21494;-73
2022/02/28 00:40:35;;;;;;;18.30;12.40;;;;;;;0.01;71.99;101860.40;1672233;84;21160;-74
2022/02/28 00:43:01;;;;;;;24.65;15.03;;;;;;;-0.04;72.14;101865.03;1693701;84;21050;-74
2022/02/28 00:45:27;;;;;;;23.67;16.82;;;;;;;-0.05;72.29;101859.42;1695335;82;20991;-74
2022/02/28 00:47:55;;;;;;;22.70;15.60;;;;;;;-0.06;72.48;101855.97;1710460;82;21079;-73
2022/02/28 00:50:22;;;;;;;26.37;17.15;;;;;;;-0.07;72.51;101858.19;1703470;82;21120;-75
2022/02/28 00:52:48;;;;;;;27.10;19.37;;;;;;;-0.09;72.51;101866.60;1695766;82;21008;-74
2022/02/28 00:55:14;;;;;;;29.48;19.77;;;;;;;-0.15;72.63;101868.69;1710598;82;21025;-75
2022/02/28 00:57:41;;;;;;;25.65;17.67;;;;;;;-0.18;72.77;101864.47;1708720;82;21081;-75
2022/02/28 01:00:12;;;;;;;21.27;16.07;;;;;;;-0.18;73.00;101867.56;1691318;85;20994;-72
2022/02/28 01:02:39;;;;;;;22.70;15.40;;;;;;;-0.18;73.06;101869.70;1682135;83;22175;-74
2022/02/28 01:05:09;;;;;;;18.80;14.20;;;;;;;-0.22;73.03;101869.02;1716614;82;21084;-72
2022/02/28 01:07:38;;;;;;;19.67;13.13;;;;;;;-0.22;73.10;101873.42;1669769;85;21003;-74
2022/02/28 01:10:06;;;;;;;;;;;;;;;-0.27;73.18;101866.26;1713246;82;21485;-76
2022/02/28 01:12:34;;;;;;;18.30;14.17;;;;;;;-0.29;73.21;101870.73;1722437;81;20108;-75
2022/02/28 01:15:01;;;;;;;14.30;10.15;;;;;;;-0.37;73.43;101864.59;1675512;85;21052;-73
2022/02/28 01:17:29;;;;;;;17.57;12.53;;;;;;;-0.40;73.62;101864.30;1712064;82;21021;-74
2022/02/28 01:19:58;;;;;;;17.47;14.13;;;;;;;-0.35;74.11;101864.05;1703687;82;21026;-72
2022/02/28 01:22:25;;;;;;;16.90;11.63;;;;;;;-0.34;73.94;101862.27;1698682;83;21056;-73
2022/02/28 01:24:52;;;;;;;20.53;13.37;;;;;;;-0.41;73.84;101865.68;1700554;82;21072;-73
2022/02/28 01:27:19;;;;;;;;;;;;;;;-0.50;73.96;101864.84;1698056;82;20996;-74
2022/02/28 01:29:46;;;;;;;17.60;13.67;;;;;;;-0.51;74.23;101869.69;1647632;84;20187;-74
2022/02/28 01:32:15;;;;;;;11.13;9.50;;;;;;;-0.59;74.46;101877.47;1669949;84;21040;-73
2022/02/28 01:34:41;;;;;;;11.63;7.70;;;;;;;-0.57;74.95;101880.48;1700283;82;21008;-74
2022/02/28 01:37:09;;;;;;;10.23;7.03;;;;;;;-0.60;75.59;101887.58;1728571;81;20947;-73
2022/02/28 01:39:35;;;;;;;9.97;6.10;;;;;;;-0.71;76.69;101879.41;1680637;83;21065;-74
2022/02/28 01:42:02;;;;;;;14.58;8.20;;;;;;;-0.70;76.32;101882.88;1707577;83;21093;-73
2022/02/28 01:44:28;;;;;;;;;;;;;;;-0.73;76.49;101881.73;1673708;83;21512;-72
2022/02/28 01:46:56;;;;;;;8.17;5.87;;;;;;;-0.73;76.55;101879.12;1662584;86;20861;-74
2022/02/28 01:49:22;;;;;;;9.93;6.97;;;;;;;-0.80;76.89;101878.09;1664150;84;21711;-73
2022/02/28 01:51:49;;;;;;;6.28;5.35;;;;;;;-0.80;76.72;101883.80;1676139;84;21724;-72
2022/02/28 01:54:15;;;;;;;8.35;6.42;;;;;;;-0.84;77.20;101879.17;1676217;84;21174;-73
2022/02/28 01:56:41;;;;;;;8.60;5.58;;;;;;;-0.85;77.29;101880.13;1629174;87;21069;-74
2022/02/28 01:59:08;;;;;;;8.13;6.17;;;;;;;-0.96;77.37;101871.08;1662227;85;21020;-73
2022/02/28 02:01:35;;;;;;;6.93;5.27;;;;;;;-0.94;77.97;101886.25;1671290;84;21049;-73
2022/02/28 02:04:01;;;;;;;7.42;5.25;;;;;;;-0.96;78.12;101886.79;1694751;83;21153;-73
2022/02/28 02:06:28;;;;;;;9.58;5.45;;;;;;;-1.02;78.53;101890.55;1685043;83;21006;-74
2022/02/28 02:08:54;;;;;;;8.17;4.80;;;;;;;-1.11;78.38;101869.62;1669522;83;21014;-73
2022/02/28 02:11:20;;;;;;;8.03;4.85;;;;;;;-1.04;78.37;101881.46;1644115;86;21114;-74
2022/02/28 02:13:48;;;;;;;5.55;3.60;;;;;;;-0.96;78.50;101877.63;1675282;86;21540;-73
2022/02/28 02:16:16;;;;;;;5.00;3.87;;;;;;;-0.87;78.37;101883.25;1657072;84;20998;-73
2022/02/28 02:18:42;;;;;;;6.27;3.60;;;;;;;-0.86;78.05;101882.81;1668452;83;21321;-73
2022/02/28 02:21:08;;;;;;;5.33;4.40;;;;;;;-0.94;78.28;101884.94;1638382;86;21096;-73
2022/02/28 02:23:34;;;;;;;10.82;4.72;;;;;;;-0.93;78.07;101894.03;1647613;86;21059;-73
2022/02/28 02:26:00;;;;;;;6.47;4.95;;;;;;;-1.00;78.52;101886.95;1660195;86;21108;-72
2022/02/28 02:28:27;;;;;;;5.58;4.08;;;;;;;-1.02;78.48;101890.11;1654773;85;21663;-72
2022/02/28 02:30:56;;;;;;;7.83;5.40;;;;;;;-1.05;78.59;101891.56;1666176;85;20966;-73
2022/02/28 02:33:27;;;;;;;5.77;4.30;;;;;;;-1.11;78.79;101895.80;1622696;86;21176;-73
2022/02/28 02:35:58;;;;;;;5.70;3.80;;;;;;;-1.14;79.04;101895.09;1644788;86;21601;-73
2022/02/28 02:38:27;;;;;;;5.27;3.97;;;;;;;-1.15;79.00;101897.31;1650913;84;21069;-74
2022/02/28 02:40:54;;;;;;;5.33;4.27;;;;;;;-1.20;79.12;101897.55;1659739;84;21049;-74
2022/02/28 02:43:21;;;;;;;7.27;4.63;;;;;;;-1.17;79.29;101893.45;1673498;83;21094;-75
2022/02/28 02:45:47;;;;;;;7.72;5.22;;;;;;;-1.18;79.30;101899.16;1636910;86;21017;-74
2022/02/28 02:48:17;;;;;;;7.25;4.70;;;;;;;-1.18;79.07;101900.93;1682719;84;21128;-72
2022/02/28 02:50:45;;;;;;;7.10;3.90;;;;;;;-1.23;79.22;101905.53;1673021;84;21561;-73
2022/02/28 02:53:12;;;;;;;6.47;4.83;;;;;;;-1.25;79.17;101901.67;1674146;84;21534;-73
2022/02/28 02:55:41;;;;;;;7.07;4.43;;;;;;;-1.30;79.50;101899.77;1679021;84;21549;-71
2022/02/28 02:58:08;;;;;;;5.77;3.57;;;;;;;-1.31;79.62;101894.59;1696802;84;20993;-73
2022/02/28 03:00:35;;;;;;;7.60;4.87;;;;;;;-1.32;79.62;101893.72;1676077;84;21053;-72
2022/02/28 03:03:05;;;;;;;6.83;4.43;;;;;;;-1.32;79.82;101891.11;1701702;84;21568;-73
2022/02/28 03:05:33;;;;;;;6.13;4.50;;;;;;;-1.31;79.71;101884.97;1681637;84;20997;-73
2022/02/28 03:07:59;;;;;;;5.67;3.98;;;;;;;-1.29;79.84;101884.44;1676425;85;21034;-73
2022/02/28 03:10:26;;;;;;;4.08;3.08;;;;;;;-1.21;79.76;101881.44;1680366;84;21082;-72
2022/02/28 03:12:53;;;;;;;6.75;3.90;;;;;;;-1.14;79.45;101881.54;1682956;84;21045;-73
2022/02/28 03:15:20;;;;;;;6.07;3.67;;;;;;;-1.07;78.94;101880.33;1674654;84;21038;-73
2022/02/28 03:17:46;;;;;;;4.53;3.37;;;;;;;-1.05;78.59;101879.78;1675059;84;21077;-73
2022/02/28 03:20:12;;;;;;;3.22;2.85;;;;;;;-1.01;78.19;101883.10;1676258;84;21037;-74
2022/02/28 03:22:39;;;;;;;6.07;3.23;;;;;;;-0.99;78.07;101883.41;1676105;85;21057;-73
2022/02/28 03:25:06;;;;;;;;;;;;;;;-0.92;77.87;101883.95;1678524;84;21014;-72
2022/02/28 03:27:37;;;;;;;4.27;3.30;;;;;;;-0.86;77.57;101885.42;1694595;85;20134;-72
2022/02/28 03:30:08;;;;;;;7.73;3.73;;;;;;;-0.87;77.27;101881.94;1697670;83;21075;-72
2022/02/28 03:32:37;;;;;;;5.53;3.50;;;;;;;-0.86;76.63;101888.05;1677894;80;21060;-74
2022/02/28 03:35:05;;;;;;;3.27;2.98;;;;;;;-0.92;76.59;101879.16;1695656;83;21011;-73
2022/02/28 03:37:32;;;;;;;4.20;2.43;;;;;;;-0.96;76.64;101886.79;1677702;84;21209;-73
2022/02/28 03:39:58;;;;;;;7.78;4.10;;;;;;;-0.95;76.47;101884.57;1702455;83;21545;-75
2022/02/28 03:42:24;;;;;;;8.80;4.53;;;;;;;-0.98;76.37;101888.16;1679521;83;21161;-73
2022/02/28 03:44:51;;;;;;;5.87;3.05;;;;;;;-1.04;76.50;101880.63;1683246;83;21029;-73
2022/02/28 03:47:17;;;;;;;4.20;2.75;;;;;;;-1.07;76.62;101881.63;1652900;85;21540;-73
2022/02/28 03:50:05;;;;;;;6.33;3.67;;;;;;;-1.06;76.59;101883.31;1575648;90;21090;-74
2022/02/28 03:52:32;;;;;;;6.23;3.10;;;;;;;-1.04;76.49;101883.24;1509201;93;21684;-74
2022/02/28 03:55:04;;;;;;;3.47;2.80;;;;;;;-1.02;76.39;101877.03;1602498;85;21509;-72
2022/02/28 03:57:31;;;;;;;5.70;3.10;;;;;;;-1.02;76.09;101880.08;1685908;83;21558;-74
2022/02/28 03:59:57;;;;;;;5.83;4.00;;;;;;;-1.12;76.24;101881.00;1651258;85;21025;-73
2022/02/28 04:02:23;;;;;;;3.35;3.05;;;;;;;-1.20;76.34;101889.70;1648722;86;21044;-73
2022/02/28 04:04:50;;;;;;;3.17;2.77;;;;;;;-1.30;76.54;101884.06;1648832;86;21068;-73
2022/02/28 04:07:17;;;;;;;3.33;2.87;;;;;;;-1.37;76.85;101883.96;1702812;83;21086;-74
2022/02/28 04:09:44;;;;;;;7.40;2.93;;;;;;;-1.43;76.90;101881.18;1660448;85;21103;-74
2022/02/28 04:12:10;;;;;;;3.08;2.45;;;;;;;-1.48;77.15;101882.31;1695559;83;21037;-73
2022/02/28 04:14:39;;;;;;;3.37;3.00;;;;;;;-1.55;77.34;101884.36;1676265;84;21058;-71
2022/02/28 04:17:08;;;;;;;2.67;2.47;;;;;;;-1.63;77.43;101898.27;1624278;87;21081;-73
2022/02/28 04:19:39;;;;;;;4.63;3.00;;;;;;;-1.70;77.64;101896.84;1682935;84;21018;-74
2022/02/28 04:22:10;;;;;;;4.73;3.57;;;;;;;-1.74;77.73;101899.22;1659429;84;21042;-73
2022/02/28 04:24:38;;;;;;;4.77;3.33;;;;;;;-1.78;77.91;101905.88;1640745;86;21071;-74
2022/02/28 04:27:05;;;;;;;3.83;3.35;;;;;;;-1.79;77.93;101898.97;1695407;83;21034;-74
2022/02/28 04:29:31;;;;;;;5.20;2.70;;;;;;;-1.77;77.84;101909.36;1674336;84;21081;-73
2022/02/28 04:32:08;;;;;;;3.60;3.27;;;;;;;-1.79;77.80;101909.43;1694824;83;21521;-73
2022/02/28 04:34:36;;;;;;;7.77;3.97;;;;;;;-1.82;77.85;101917.40;1686590;83;21540;-73
2022/02/28 04:37:03;;;;;;;2.30;2.02;;;;;;;-1.82;77.96;101920.02;1693004;83;21065;-73
2022/02/28 04:39:29;;;;;;;4.53;3.33;;;;;;;-1.81;77.86;101919.55;1671573;83;21085;-72
2022/02/28 04:41:57;;;;;;;5.90;3.27;;;;;;;-1.81;77.82;101922.16;1689858;83;21099;-73
2022/02/28 04:44:24;;;;;;;10.95;3.65;;;;;;;-1.80;77.70;101923.41;1689538;83;21039;-74
2022/02/28 04:46:50;;;;;;;2.37;2.10;;;;;;;-1.79;77.74;101921.19;1694152;83;21046;-74
2022/02/28 04:49:34;;;;;;;3.10;2.80;;;;;;;-1.83;77.61;101934.02;1694811;83;21028;-72
2022/02/28 04:52:04;;;;;;;4.20;3.33;;;;;;;-1.82;77.63;101932.24;1693966;83;21380;-73
2022/02/28 04:54:31;;;;;;;5.70;3.73;;;;;;;-1.90;77.88;101935.64;1669508;85;21875;-73
2022/02/28 04:56:57;;;;;;;3.52;2.58;;;;;;;-1.91;77.95;101936.11;1694279;83;21667;-74
2022/02/28 04:59:26;;;;;;;2.80;2.50;;;;;;;-1.93;78.01;101937.94;1688113;83;21076;-73
2022/02/28 05:01:54;;;;;;;5.57;3.40;;;;;;;-1.89;78.28;101930.34;1689388;83;21064;-74
2022/02/28 05:04:39;;;;;;;3.73;2.33;;;;;;;-1.73;78.35;101929.66;1686809;83;21139;-74
2022/02/28 05:07:06;;;;;;;3.50;2.55;;;;;;;-1.38;78.00;101938.02;1690006;83;21568;-73
2022/02/28 05:09:33;;;;;;;5.07;3.20;;;;;;;-1.03;75.60;101934.20;1696013;83;21078;-75
2022/02/28 05:12:00;;;;;;;4.30;2.30;;;;;;;-0.83;74.48;101937.17;1693848;83;21022;-75
2022/02/28 05:14:27;;;;;;;3.12;2.17;;;;;;;-0.57;73.94;101930.25;1693792;83;21058;-74
2022/02/28 05:16:54;;;;;;;2.87;2.00;;;;;;;-0.20;72.74;101939.23;1681605;84;21596;-73
2022/02/28 05:19:20;;;;;;;3.62;2.12;;;;;;;0.19;71.16;101936.77;1683750;84;21014;-75
2022/02/28 05:21:46;;;;;;;2.47;2.27;;;;;;;0.51;68.90;101939.88;1672944;84;21035;-75
2022/02/28 05:24:13;;;;;;;2.30;2.00;;;;;;;0.71;67.81;101944.88;1703484;83;21004;-74
2022/02/28 05:26:39;;;;;;;2.65;2.00;;;;;;;0.81;66.48;101942.62;1715458;82;21087;-76
2022/02/28 05:29:05;;;;;;;3.52;2.20;;;;;;;0.92;66.03;101948.11;1702894;83;21645;-73
2022/02/28 05:31:32;;;;;;;2.77;1.42;;;;;;;0.99;65.58;101951.22;1703822;83;21536;-75
2022/02/28 05:34:13;;;;;;;3.13;2.17;;;;;;;1.02;64.64;101951.50;1670015;84;21493;-73
2022/02/28 05:36:39;;;;;;;2.03;1.83;;;;;;;1.22;63.96;101957.78;1707693;83;21097;-75
2022/02/28 05:39:07;;;;;;;2.13;1.90;;;;;;;1.47;63.50;101951.11;1723489;82;21019;-78
2022/02/28 05:41:33;;;;;;;3.65;2.37;;;;;;;1.77;62.39;101952.40;1711387;82;21041;-76
2022/02/28 05:44:02;;;;;;;2.37;1.53;;;;;;;2.04;60.41;101955.17;1714892;83;21115;-76
2022/02/28 05:46:28;;;;;;;3.10;1.90;;;;;;;2.00;60.00;101938.34;1710316;82;20971;-74
2022/02/28 05:49:13;;;;;;;2.43;1.93;;;;;;;2.25;59.99;101956.95;1731383;83;21043;-78
2022/02/28 05:51:39;;;;;;;2.98;2.33;;;;;;;2.72;57.55;101961.51;1704274;82;21098;-75
2022/02/28 05:54:07;;;;;;;1.73;1.57;;;;;;;2.95;56.74;101952.61;1714389;83;21019;-76
2022/02/28 05:56:34;;;;;;;3.50;2.17;;;;;;;2.97;57.10;101948.92;1728744;82;21042;-77
2022/02/28 05:59:00;;;;;;;1.75;1.17;;;;;;;3.24;55.45;101955.52;1714113;83;21022;-76
2022/02/28 06:01:26;;;;;;;;;;;;;;;3.32;54.39;101955.00;1725723;82;21065;-75
2022/02/28 06:03:52;;;;;;;2.07;1.23;;;;;;;3.58;55.74;101957.23;1707256;83;20189;-76
2022/02/28 06:06:18;;;;;;;1.40;1.30;;;;;;;3.85;53.62;101955.81;1707630;83;21169;-75
2022/02/28 06:08:45;;;;;;;3.52;1.67;;;;;;;4.05;52.04;101956.23;1707436;83;21167;-76
2022/02/28 06:11:11;;;;;;;2.60;1.75;;;;;;;3.90;52.45;101945.80;1725737;82;21023;-76
2022/02/28 06:13:39;;;;;;;2.13;1.87;;;;;;;3.87;52.27;101962.31;1675542;85;21125;-75
2022/02/28 06:16:05;;;;;;;3.85;1.75;;;;;;;4.00;51.84;101953.92;1666104;85;21079;-76
2022/02/28 06:18:31;;;;;;;2.25;1.35;;;;;;;4.01;51.79;101950.34;1669203;85;21502;-76
2022/02/28 06:20:57;;;;;;;3.08;1.77;;;;;;;3.97;51.24;101951.97;1680408;85;20976;-78
2022/02/28 06:23:23;;;;;;;1.85;1.17;;;;;;;3.96;51.33;101952.45;1669804;85;21162;-76
2022/02/28 06:25:49;;;;;;;1.60;1.50;;;;;;;4.24;50.81;101961.94;1666623;84;21361;-76
2022/02/28 06:28:20;;;;;;;2.05;1.25;;;;;;;4.88;49.53;101963.59;1666123;85;21703;-75
2022/02/28 06:30:47;;;;;;;1.73;1.23;;;;;;;4.77;48.79;101966.17;1671744;85;21046;-76
2022/02/28 06:33:14;;;;;;;2.00;1.80;;;;;;;3.92;50.11;101968.58;1658724;84;21067;-77
2022/02/28 06:35:44;;;;;;;1.77;1.67;;;;;;;3.24;51.72;101973.09;1711654;83;21007;-77
2022/02/28 06:38:09;;;;;;;2.50;2.07;;;;;;;2.76;53.21;101978.80;1727318;82;21038;-76
2022/02/28 06:40:38;;;;;;;3.20;1.40;;;;;;;2.30;54.52;101982.52;1710859;82;21039;-75
2022/02/28 06:43:04;;;;;;;1.40;1.23;;;;;;;1.72;56.44;101994.75;1705717;83;21068;-74
2022/02/28 06:45:31;;;;;;;1.80;1.63;;;;;;;1.21;57.88;101986.32;1705475;83;21595;-76
2022/02/28 06:47:57;;;;;;;3.45;1.75;;;;;;;0.83;59.45;101983.20;1726310;83;21083;-74
2022/02/28 06:50:24;;;;;;;2.27;1.20;;;;;;;0.57;60.78;101990.27;1706611;83;21098;-75
2022/02/28 06:52:50;;;;;;;2.93;1.37;;;;;;;0.50;61.02;101982.80;1693365;83;21095;-73
2022/02/28 06:55:16;;;;;;;2.75;2.02;;;;;;;0.38;61.77;101979.07;1705576;83;21066;-74
2022/02/28 06:57:44;;;;;;;3.43;2.27;;;;;;;0.35;62.13;101983.16;1725946;83;21502;-74
2022/02/28 07:00:11;;;;;;;4.15;2.85;;;;;;;0.33;62.48;101978.46;1692756;85;21035;-75
2022/02/28 07:02:40;;;;;;;2.67;2.07;;;;;;;0.37;62.32;101976.05;1731294;82;21046;-74
2022/02/28 07:05:07;;;;;;;;;;;;;;;0.33;62.29;101974.53;1711620;83;21079;-74
2022/02/28 07:07:33;;;;;;;3.97;2.53;;;;;;;0.33;62.42;101982.39;1726261;83;20162;-73
2022/02/28 07:10:00;;;;;;;3.62;2.40;;;;;;;0.32;62.56;101982.87;1705697;83;21021;-73
2022/02/28 07:12:26;;;;;;;4.03;2.03;;;;;;;0.38;62.76;101975.14;1707857;83;21002;-73
2022/02/28 07:14:53;;;;;;;2.80;2.22;;;;;;;0.34;62.70;101960.47;1695882;83;21127;-73
2022/02/28 07:17:19;;;;;;;3.42;2.35;;;;;;;0.47;62.22;101973.33;1707860;83;20994;-74
2022/02/28 07:19:45;;;;;;;4.72;2.60;;;;;;;0.50;62.22;101977.56;1702844;83;21385;-73
2022/02/28 07:22:11;;;;;;;1.85;1.72;;;;;;;0.54;60.96;101978.61;1711029;83;21017;-74
2022/02/28 07:24:37;;;;;;;3.67;2.62;;;;;;;0.53;60.50;101976.09;1670001;85;21028;-75
2022/02/28 07:27:04;;;;;;;2.25;2.10;;;;;;;0.56;59.92;101978.05;1626998;87;21151;-75
2022/02/28 07:29:30;;;;;;;3.77;2.60;;;;;;;0.60;59.41;101966.93;1640172;87;21083;-74
2022/02/28 07:31:57;;;;;;;3.17;2.05;;;;;;;0.67;58.93;101980.58;1668089;84;21076;-76
2022/02/28 07:34:23;;;;;;;3.47;2.08;;;;;;;0.68;59.29;101969.13;1643775;86;21065;-75
2022/02/28 07:36:49;;;;;;;2.77;1.95;;;;;;;0.76;59.22;101971.73;1638277;87;22334;-75
2022/02/28 07:39:17;;;;;;;1.82;1.65;;;;;;;0.86;57.91;101983.03;1633838;87;21096;-75
2022/02/28 07:41:45;;;;;;;2.37;2.10;;;;;;;0.80;58.20;101967.16;1634448;87;21060;-75
2022/02/28 07:44:13;;;;;;;1.40;1.30;;;;;;;0.88;58.06;101971.51;1639937;86;21060;-75
2022/02/28 07:46:41;;;;;;;1.80;1.70;;;;;;;0.93;56.85;101974.73;1691092;83;21102;-76
2022/02/28 07:49:07;;;;;;;2.83;1.70;;;;;;;1.05;56.64;101973.19;1671917;85;21479;-76
2022/02/28 07:51:34;;;;;;;2.92;1.37;;;;;;;1.10;56.07;101967.70;1673376;85;21164;-76
2022/02/28 07:54:00;;;;;;;6.42;1.65;;;;;;;1.25;54.46;101983.05;1689259;83;21531;-75
2022/02/28 07:56:26;;;;;;;1.15;1.00;;;;;;;1.30;54.19;101986.24;1673367;83;21063;-75
2022/02/28 07:58:52;;;;;;;1.55;1.20;;;;;;;1.25;53.45;101987.83;1679336;85;21601;-74
2022/02/28 08:01:18;;;;;;;2.92;1.77;;;;;;;1.28;53.24;101993.37;1688704;84;20983;-75
2022/02/28 08:03:45;;;;;;;;;;;;;;;1.26;52.97;101990.85;1686987;84;21122;-73
2022/02/28 08:06:11;;;;;;;2.17;1.13;;;;;;;1.26;52.80;101989.55;1692682;84;20215;-75
2022/02/28 08:08:36;;;;;;;2.47;1.37;;;;;;;1.21;52.74;101988.95;1704947;84;20999;-73
2022/02/28 08:11:03;;;;;;;2.12;1.20;;;;;;;1.23;52.63;101999.37;1669492;85;21640;-73
2022/02/28 08:13:31;;;;;;;2.00;1.27;;;;;;;1.19;52.28;101986.88;1688796;85;21061;-75
2022/02/28 08:15:59;;;;;;;4.08;0.82;;;;;;;1.26;52.40;101984.28;1673244;84;21120;-76
2022/02/28 08:18:25;;;;;;;2.07;1.33;;;;;;;1.32;51.81;101985.24;1665638;85;21036;-75
2022/02/28 08:20:51;;;;;;;4.55;1.10;;;;;;;1.41;51.58;101986.48;1665895;85;22185;-75
2022/02/28 08:23:17;;;;;;;1.07;0.95;;;;;;;1.44;51.42;101983.68;1665957;85;21019;-75
2022/02/28 08:25:45;;;;;;;1.40;0.60;;;;;;;1.53;51.44;101975.74;1693771;84;21026;-74
2022/02/28 08:28:12;;;;;;;1.80;1.00;;;;;;;1.61;50.45;101985.80;1693529;83;21006;-74
2022/02/28 08:30:38;;;;;;;1.40;1.10;;;;;;;1.63;50.76;101982.62;1693393;84;21106;-74
2022/02/28 08:33:04;;;;;;;1.20;1.12;;;;;;;1.79;49.78;101978.60;1675117;86;21050;-75
2022/02/28 08:35:31;;;;;;;1.42;1.12;;;;;;;1.79;49.78;101978.60;1663977;86;21612;-73
2022/02/28 08:37:57;;;;;;;2.52;0.82;;;;;;;1.80;49.89;101962.74;1691057;84;20998;-76
2022/02/28 08:40:23;;;;;;;1.35;0.88;;;;;;;1.92;49.36;101975.17;1675490;85;21120;-75
2022/02/28 08:42:49;;;;;;;3.70;1.25;;;;;;;1.95;49.27;101974.12;1674070;85;21555;-74
2022/02/28 08:45:15;;;;;;;1.40;0.78;;;;;;;1.99;49.19;101970.38;1674500;85;21055;-74
2022/02/28 08:47:42;;;;;;;2.72;1.02;;;;;;;2.07;49.42;101969.46;1674613;86;21616;-74
2022/02/28 08:50:09;;;;;;;2.37;0.93;;;;;;;2.13;49.09;101969.08;1693290;85;21002;-75
2022/02/28 08:52:36;;;;;;;5.27;1.10;;;;;;;2.28;48.92;101973.88;1673651;86;21251;-74
2022/02/28 08:55:04;;;;;;;1.30;0.68;;;;;;;2.38;48.06;101968.89;1672671;86;21156;-75
2022/02/28 08:57:30;;;;;;;1.00;0.77;;;;;;;2.39;47.88;101967.09;1692101;85;21080;-76
2022/02/28 08:59:57;;;;;;;1.37;1.17;;;;;;;2.41;47.51;101966.08;1674130;85;21083;-74
2022/02/28 09:02:23;;;;;;;2.30;0.90;;;;;;;2.39;47.75;101960.03;1668774;86;21114;-76
2022/02/28 09:04:48;;;;;;;2.17;0.60;;;;;;;2.47;47.57;101967.48;1680694;85;21087;-74
2022/02/28 09:07:15;;;;;;;0.95;0.80;;;;;;;2.49;47.46;101962.48;1665116;85;21122;-75
2022/02/28 09:09:43;;;;;;;4.67;0.93;;;;;;;2.46;47.70;101955.25;1672406;85;21061;-74
2022/02/28 09:12:10;;;;;;;1.05;0.80;;;;;;;2.52;47.48;101960.13;1677671;84;21567;-74
2022/02/28 09:14:36;;;;;;;1.13;0.90;;;;;;;2.56;47.51;101952.88;1690178;85;20991;-76
2022/02/28 09:17:04;;;;;;;0.85;0.70;;;;;;;2.60;47.36;101949.10;1682157;84;21062;-75
2022/02/28 09:19:31;;;;;;;0.90;0.43;;;;;;;2.68;47.25;101943.73;1685101;85;21094;-75
2022/02/28 09:21:57;;;;;;;2.92;1.17;;;;;;;2.72;47.09;101943.91;1674833;85;21034;-77
2022/02/28 09:24:23;;;;;;;;;;;;;;;2.79;47.29;101950.97;1693579;84;21016;-78
2022/02/28 09:26:49;;;;;;;5.53;1.23;;;;;;;2.79;47.18;101948.33;1691246;85;20180;-77
2022/02/28 09:29:15;;;;;;;1.50;1.17;;;;;;;2.80;47.16;101934.20;1683235;85;21056;-75
2022/02/28 09:31:42;;;;;;;1.45;0.45;;;;;;;2.82;46.02;101936.27;1684715;85;21029;-76
2022/02/28 09:34:08;;;;;;;2.62;1.22;;;;;;;2.86;46.02;101939.55;1688013;84;21000;-76
2022/02/28 09:36:37;;;;;;;1.20;1.10;;;;;;;2.90;46.13;101928.73;1679567;85;21506;-75
2022/02/28 09:39:03;;;;;;;1.40;0.90;;;;;;;2.95;46.42;101935.48;1693471;85;21042;-77
2022/02/28 09:41:32;;;;;;;0.70;0.63;;;;;;;3.03;46.62;101926.59;1690668;84;21591;-75
2022/02/28 09:44:17;;;;;;;1.30;0.77;;;;;;;3.06;46.35;101938.27;1676582;84;21063;-76
2022/02/28 09:47:04;;;;;;;1.00;0.60;;;;;;;3.10;46.44;101924.78;1684969;85;21086;-75
2022/02/28 09:49:44;;;;;;;4.37;1.03;;;;;;;3.12;46.62;101929.47;1638910;84;21047;-78
2022/02/28 09:52:10;;;;;;;3.87;1.00;;;;;;;3.13;46.82;101923.75;1675010;85;21043;-76
2022/02/28 09:54:46;;;;;;;1.47;0.63;;;;;;;3.11;46.21;101930.92;1652678;85;21003;-78
2022/02/28 09:57:22;;;;;;;1.00;0.43;;;;;;;3.07;46.39;101922.37;1637125;86;21076;-75
2022/02/28 10:00:10;;;;;;;4.93;1.20;;;;;;;3.11;46.43;101910.67;1667802;86;21109;-77
2022/02/28 10:02:43;;;;;;;2.93;1.13;;;;;;;3.16;46.08;101910.36;1692486;85;21020;-77
2022/02/28 10:07:21;;;;;;;2.00;0.63;;;;;;;3.12;45.25;101898.34;1842574;76;22869;-76
2022/02/28 10:10:10;;;;;;;1.33;0.87;;;;;;;3.06;45.18;101907.48;1807901;78;21035;-79
2022/02/28 10:12:38;;;;;;;0.90;0.70;;;;;;;3.11;45.32;101896.66;1735666;78;21020;-79
2022/02/28 10:15:18;;;;;;;1.00;1.00;;;;;;;3.22;44.77;101897.25;1701246;83;21052;-77
2022/02/28 10:17:55;;;;;;;1.73;0.93;;;;;;;3.29;43.95;101895.41;1701744;83;21560;-77
2022/02/28 10:20:37;;;;;;;4.17;1.10;;;;;;;3.37;44.27;101892.30;1701245;83;21029;-76
2022/02/28 10:23:11;;;;;;;2.63;1.37;;;;;;;3.36;45.19;101888.44;1713613;83;21023;-77
2022/02/28 10:25:43;;;;;;;2.97;1.33;;;;;;;3.37;45.78;101883.52;1653684;84;21057;-76
2022/02/28 10:28:24;;;;;;;2.70;1.63;;;;;;;3.39;45.96;101874.58;1679305;83;21092;-77
2022/02/28 10:31:11;;;;;;;2.47;1.20;;;;;;;3.42;45.95;101880.94;1704738;83;21088;-75
2022/02/28 10:33:56;;;;;;;3.77;1.40;;;;;;;3.39;45.87;101889.08;1698476;84;20998;-76
2022/02/28 10:36:47;;;;;;;1.73;1.47;;;;;;;3.32;45.29;101889.11;1680846;84;21010;-77
2022/02/28 10:39:14;;;;;;;1.80;1.70;;;;;;;3.34;45.16;101878.47;1650530;87;21028;-77
2022/02/28 10:41:43;;;;;;;3.83;1.20;;;;;;;3.37;44.64;101894.06;1651239;85;21579;-77
2022/02/28 10:44:13;;;;;;;2.00;0.93;;;;;;;3.39;44.33;101874.58;1672327;84;21180;-76
2022/02/28 10:46:43;;;;;;;2.13;1.00;;;;;;;3.40;44.41;101868.34;1718430;83;21043;-75
2022/02/28 10:49:25;;;;;;;0.80;0.63;;;;;;;3.38;43.99;101861.02;1704656;83;21001;-77
2022/02/28 10:51:58;;;;;;;2.80;0.83;;;;;;;3.41;43.68;101858.63;1659578;86;21021;-78
2022/02/28 10:54:31;;;;;;;1.10;0.47;;;;;;;3.50;43.64;101864.59;1689319;84;21070;-78
2022/02/28 10:57:07;;;;;;;0.90;0.60;;;;;;;3.52;43.17;101857.42;1709235;83;21021;-78
2022/02/28 10:59:47;;;;;;;3.40;1.10;;;;;;;3.51;43.55;101850.00;1671005;84;21035;-76
2022/02/28 11:02:29;;;;;;;3.33;0.50;;;;;;;3.51;43.78;101855.76;1673693;84;21033;-76
2022/02/28 11:05:11;;;;;;;1.13;0.60;;;;;;;3.60;43.44;101860.41;1682352;84;21100;-78
2022/02/28 11:07:52;;;;;;;6.67;0.73;;;;;;;3.67;43.28;101855.08;1680209;84;21027;-76
2022/02/28 11:10:20;;;;;;;1.23;0.70;;;;;;;3.76;43.06;101860.17;1683105;84;21038;-77
2022/02/28 11:12:50;;;;;;;0.60;0.60;;;;;;;3.82;42.30;101865.49;1691250;84;21139;-76
2022/02/28 11:15:21;;;;;;;0.30;0.30;;;;;;;3.82;41.80;101861.54;1681371;84;21080;-77
2022/02/28 11:17:48;;;;;;;0.40;0.40;;;;;;;3.80;41.82;101862.12;1695511;83;21031;-77
2022/02/28 11:20:19;;;;;;;0.33;0.20;;;;;;;3.80;41.61;101859.00;1695664;83;21103;-76
2022/02/28 11:22:47;;;;;;;0.60;0.23;;;;;;;3.81;41.75;101861.19;1693188;83;21596;-76
2022/02/28 11:25:17;;;;;;;1.50;0.20;;;;;;;3.80;41.12;101865.59;1695365;83;21020;-75
2022/02/28 11:27:49;;;;;;;1.10;0.50;;;;;;;3.85;40.67;101852.11;1695142;83;21090;-77
2022/02/28 11:30:21;;;;;;;1.37;0.93;;;;;;;3.83;40.93;101857.48;1695132;83;21112;-78
2022/02/28 11:33:04;;;;;;;2.67;0.40;;;;;;;3.88;40.62;101859.78;1676195;83;21048;-79
2022/02/28 11:35:55;;;;;;;0.40;0.40;;;;;;;3.95;40.89;101857.57;1694523;83;21694;-77
2022/02/28 11:38:28;;;;;;;1.97;0.60;;;;;;;3.96;40.52;101844.28;1678856;83;21080;-78